createdAt,value
2019-02-28T01:44:11.333Z,2.90
2019-02-28T01:46:40.332Z,6.00
2019-02-28T01:49:10.949Z,4.80
2019-02-28T01:51:40.349Z,3.90
2019-02-28T01:54:53.034Z,3.47
2019-02-28T01:57:45.958Z,4.10
2019-02-28T02:00:57.323Z,2.83
2019-02-28T02:03:28.337Z,4.97
2019-02-28T02:05:57.748Z,7.53
2019-02-28T02:08:27.736Z,5.93
2019-02-28T02:10:56.954Z,9.20
2019-02-28T02:17:04.225Z,4.27
2019-02-28T02:20:11.033Z,6.33
2019-02-28T02:23:21.171Z,4.70
2019-02-28T02:25:52.656Z,3.23
2019-02-28T02:28:26.657Z,5.67
2019-02-28T02:30:52.947Z,5.50
2019-02-28T02:37:31.377Z,5.97
2019-02-28T02:43:06.247Z,6.13
2019-02-28T02:45:41.775Z,3.43
2019-02-28T02:48:06.857Z,4.03
2019-02-28T02:50:36.331Z,5.00
2019-02-28T02:53:24.534Z,6.33
2019-02-28T02:55:53.536Z,2.97
2019-02-28T02:58:26.640Z,3.60
2019-02-28T03:00:53.887Z,2.97
2019-02-28T03:03:23.292Z,8.93
2019-02-28T03:05:52.565Z,6.57
2019-02-28T03:08:21.591Z,5.37
2019-02-28T03:10:52.752Z,6.90
2019-02-28T03:13:43.677Z,4.80
2019-02-28T03:16:12.923Z,2.07
2019-02-28T03:18:42.315Z,3.00
2019-02-28T03:21:14.982Z,6.13
2019-02-28T03:23:42.190Z,9.40
2019-02-28T03:26:11.251Z,4.40
2019-02-28T03:28:40.979Z,5.00
2019-02-28T03:31:14.431Z,5.27
2019-02-28T03:34:13.225Z,3.37
2019-02-28T03:36:37.038Z,4.60
2019-02-28T03:39:06.905Z,6.70
2019-02-28T03:41:36.318Z,5.60
2019-02-28T03:44:05.526Z,4.80
2019-02-28T03:46:34.865Z,10.63
2019-02-28T03:49:11.098Z,2.30
2019-02-28T03:51:35.092Z,3.70
2019-02-28T03:54:11.138Z,12.60
2019-02-28T03:56:40.582Z,8.63
2019-02-28T03:59:09.659Z,8.83
2019-02-28T04:01:44.801Z,29.17
2019-02-28T04:04:12.118Z,14.63
2019-02-28T04:06:41.076Z,5.63
2019-02-28T04:09:10.465Z,8.33
2019-02-28T04:11:52.367Z,5.53
2019-02-28T04:14:21.440Z,9.97
2019-02-28T04:16:54.200Z,22.67
2019-02-28T04:19:22.839Z,4.80
2019-02-28T04:22:14.606Z,9.83
2019-02-28T04:24:46.246Z,3.70
2019-02-28T04:27:22.908Z,13.03
2019-02-28T04:29:51.989Z,4.83
2019-02-28T04:32:26.673Z,3.53
2019-02-28T04:34:51.842Z,10.03
2019-02-28T04:37:21.244Z,15.83
2019-02-28T04:39:53.346Z,5.43
2019-02-28T04:42:21.272Z,6.27
2019-02-28T04:44:51.914Z,3.93
2019-02-28T04:47:22.279Z,10.73
2019-02-28T04:49:53.511Z,2.87
2019-02-28T04:52:22.446Z,13.40
2019-02-28T04:54:51.670Z,7.70
2019-02-28T04:57:23.039Z,4.50
2019-02-28T04:59:52.369Z,3.10
2019-02-28T07:34:47.493Z,17.30
2019-02-28T07:37:19.028Z,14.80
2019-02-28T07:39:47.719Z,19.30
2019-02-28T07:42:16.719Z,18.87
2019-02-28T07:44:45.712Z,15.30
2019-02-28T07:47:17.533Z,40.50
2019-02-28T07:49:45.578Z,26.10
2019-02-28T07:52:15.111Z,20.27
2019-02-28T07:55:00.268Z,32.83
2019-02-28T07:57:29.995Z,21.00
2019-02-28T07:59:59.967Z,20.37
2019-02-28T08:02:29.113Z,25.73
2019-02-28T08:04:58.310Z,19.37
2019-02-28T08:07:27.373Z,28.47
2019-02-28T08:09:58.092Z,28.90
2019-02-28T08:12:30.837Z,21.10
2019-02-28T08:14:58.741Z,24.90
2019-02-28T08:17:28.070Z,30.17
2019-02-28T08:19:58.778Z,24.80
2019-02-28T08:22:28.046Z,26.40
2019-02-28T08:24:57.278Z,27.43
2019-02-28T08:27:26.487Z,25.13
2019-02-28T08:29:56.069Z,26.83
2019-02-28T08:32:25.854Z,25.53
2019-02-28T08:34:59.554Z,21.30
2019-02-28T08:37:26.982Z,16.20
2019-02-28T08:39:56.665Z,34.57
2019-02-28T08:42:26.094Z,31.13
2019-02-28T08:44:58.947Z,19.13
2019-02-28T08:47:26.533Z,22.63
2019-02-28T08:49:55.949Z,29.53
2019-02-28T08:52:25.325Z,24.07
2019-02-28T08:54:54.916Z,24.80
2019-02-28T08:57:25.669Z,22.80
2019-02-28T08:59:56.385Z,17.73
2019-02-28T09:02:25.890Z,22.93
2019-02-28T09:04:55.604Z,22.13
2019-02-28T09:07:24.967Z,32.70
2019-02-28T09:09:54.309Z,23.83
2019-02-28T09:12:23.558Z,31.50
2019-02-28T09:14:55.405Z,24.37
2019-02-28T09:17:23.593Z,27.70
2019-02-28T09:19:53.007Z,22.53
2019-02-28T09:22:26.964Z,26.63
2019-02-28T09:24:52.660Z,35.47
2019-02-28T09:27:21.643Z,30.53
2019-02-28T09:29:54.470Z,25.67
2019-02-28T09:32:21.943Z,24.57
2019-02-28T09:34:51.242Z,24.70
2019-02-28T09:37:22.514Z,33.90
2019-02-28T09:39:54.297Z,22.27
2019-02-28T09:42:22.648Z,27.63
2019-02-28T09:44:52.061Z,27.13
2019-02-28T09:47:23.369Z,15.27
2019-02-28T09:49:53.046Z,22.90
2019-02-28T09:52:22.827Z,24.93
2019-02-28T09:54:51.851Z,25.63
2019-02-28T09:57:22.650Z,24.90
2019-02-28T09:59:51.807Z,19.47
2019-02-28T10:02:20.879Z,25.70
2019-02-28T10:04:50.152Z,26.33
2019-02-28T10:07:19.916Z,15.23
2019-02-28T10:09:49.393Z,27.13
2019-02-28T10:12:18.826Z,31.60
2019-02-28T10:14:48.236Z,27.87
2019-02-28T10:17:17.317Z,22.40
2019-02-28T10:19:51.970Z,18.47
2019-02-28T10:22:18.259Z,18.03
2019-02-28T10:24:48.532Z,35.83
2019-02-28T10:27:17.560Z,28.87
2019-02-28T10:29:46.585Z,25.40
2019-02-28T10:32:15.904Z,22.00
2019-02-28T10:34:45.613Z,17.30
2019-02-28T10:37:14.880Z,21.50
2019-02-28T10:39:45.268Z,28.40
2019-02-28T10:42:14.748Z,20.77
2019-02-28T10:44:44.058Z,25.97
2019-02-28T10:47:13.935Z,18.53
2019-02-28T10:49:43.260Z,26.40
2019-02-28T10:52:12.225Z,19.77
2019-02-28T10:54:41.715Z,28.00
2019-02-28T10:57:10.996Z,24.80
2019-02-28T10:59:41.722Z,22.83
2019-02-28T11:02:13.916Z,36.97
2019-02-28T11:04:43.813Z,21.87
2019-02-28T11:07:13.328Z,31.83
2019-02-28T11:09:42.252Z,44.23
2019-02-28T11:12:11.423Z,23.53
2019-02-28T11:14:40.715Z,23.47
2019-02-28T11:17:13.692Z,18.63
2019-02-28T11:19:40.557Z,18.33
2019-02-28T11:22:09.894Z,19.60
2019-02-28T11:24:39.090Z,30.43
2019-02-28T11:27:08.388Z,26.30
2019-02-28T11:29:37.753Z,35.63
2019-02-28T11:32:07.496Z,22.30
2019-02-28T11:34:36.661Z,29.23
2019-02-28T11:37:08.893Z,16.63
2019-02-28T11:39:37.993Z,20.53
2019-02-28T11:42:07.233Z,28.73
2019-02-28T11:44:36.244Z,18.00
2019-02-28T11:47:08.398Z,27.07
2019-02-28T11:49:36.171Z,17.60
2019-02-28T11:52:05.376Z,21.37
2019-02-28T11:54:34.674Z,26.33
2019-02-28T11:57:06.743Z,23.10
2019-02-28T11:59:34.936Z,26.40
2019-02-28T12:02:04.410Z,35.80
2019-02-28T12:04:33.763Z,23.57
2019-02-28T12:07:03.007Z,23.83
2019-02-28T12:09:32.633Z,30.60
2019-02-28T12:12:01.922Z,18.47
2019-02-28T12:14:31.288Z,31.93
2019-02-28T12:17:00.350Z,21.73
2019-02-28T12:19:29.382Z,23.83
2019-02-28T12:22:00.130Z,27.10
2019-02-28T12:24:29.440Z,25.13
2019-02-28T12:27:00.199Z,28.63
2019-02-28T12:29:29.566Z,24.80
2019-02-28T12:31:58.484Z,21.23
2019-02-28T12:34:28.748Z,22.20
2019-02-28T12:36:59.941Z,15.97
2019-02-28T12:39:29.006Z,34.93
2019-02-28T12:41:59.491Z,39.63
2019-02-28T12:44:29.194Z,26.60
2019-02-28T12:46:58.647Z,29.53
2019-02-28T12:49:27.849Z,31.13
2019-02-28T12:51:57.064Z,36.10
2019-02-28T12:54:26.214Z,29.63
2019-02-28T12:56:55.597Z,24.97
2019-02-28T12:59:24.645Z,34.23
2019-02-28T13:01:54.025Z,28.60
2019-02-28T13:04:23.762Z,65.80
2019-02-28T13:06:55.477Z,29.07
2019-02-28T13:09:23.783Z,37.47
2019-02-28T13:11:52.891Z,21.70
2019-02-28T13:14:22.052Z,25.20
2019-02-28T13:16:54.515Z,22.03
2019-02-28T13:19:22.043Z,24.47
2019-02-28T13:21:51.202Z,22.90
2019-02-28T13:24:20.483Z,28.00
2019-02-28T13:26:50.444Z,21.63
2019-02-28T13:29:22.121Z,21.63
2019-02-28T13:31:50.660Z,17.63
2019-02-28T19:48:33.729Z,26.30
2019-02-28T19:51:03.150Z,27.70
2019-02-28T19:53:33.194Z,31.60
2019-02-28T19:56:02.658Z,28.60
2019-02-28T19:58:31.680Z,29.90
2019-02-28T20:01:00.838Z,26.77
2019-02-28T20:03:30.159Z,37.23
2019-02-28T20:05:59.929Z,39.93
2019-02-28T20:08:29.218Z,31.47
2019-02-28T20:10:58.342Z,38.13
2019-02-28T20:13:27.648Z,37.77
2019-02-28T20:16:03.765Z,32.47
2019-02-28T20:18:33.742Z,29.83
2019-02-28T20:21:03.134Z,25.70
2019-02-28T20:23:33.195Z,34.13
2019-02-28T20:26:02.878Z,32.23
2019-02-28T20:28:32.219Z,26.50
2019-02-28T20:31:01.359Z,32.43
2019-02-28T20:33:30.518Z,34.60
2019-02-28T20:36:00.040Z,32.73
2019-02-28T20:38:29.566Z,25.80
2019-02-28T20:41:00.872Z,21.93
2019-02-28T20:43:35.367Z,29.03
2019-02-28T20:46:05.817Z,32.47
2019-02-28T20:48:34.858Z,26.93
2019-02-28T20:51:05.246Z,35.43
2019-02-28T20:53:35.083Z,22.70
2019-02-28T20:56:05.892Z,32.03
2019-02-28T20:58:35.129Z,23.80
2019-02-28T21:01:05.006Z,32.20
2019-02-28T21:03:35.066Z,25.23
2019-02-28T21:06:04.465Z,29.60
2019-02-28T21:08:34.172Z,26.63
2019-02-28T21:11:03.818Z,30.50
2019-02-28T21:13:33.859Z,31.63
2019-02-28T21:16:04.059Z,38.73
2019-02-28T21:18:42.529Z,25.33
2019-02-28T21:21:23.903Z,25.10
2019-02-28T21:24:21.384Z,36.93
2019-02-28T21:30:03.578Z,27.00
2019-02-28T21:32:35.215Z,29.17
2019-02-28T21:35:07.282Z,24.00
2019-02-28T21:37:38.021Z,31.23
2019-02-28T21:40:08.273Z,27.90
2019-02-28T21:42:37.550Z,23.70
2019-02-28T21:45:07.342Z,24.00
2019-02-28T21:47:36.408Z,31.53
2019-02-28T21:50:06.352Z,28.70
2019-02-28T21:52:35.993Z,27.83
2019-02-28T21:55:05.834Z,34.63
2019-02-28T21:57:34.852Z,31.57
2019-02-28T22:00:04.636Z,25.40
2019-02-28T22:02:33.793Z,26.50
2019-02-28T22:05:02.871Z,31.10
2019-02-28T22:07:31.991Z,28.97
2019-02-28T22:10:01.263Z,29.83
2019-02-28T22:12:30.212Z,27.40
2019-02-28T22:14:59.532Z,23.47
2019-02-28T22:17:28.776Z,30.90
2019-02-28T22:19:58.897Z,25.30
2019-02-28T22:22:28.380Z,43.87
2019-02-28T22:24:57.594Z,25.97
2019-02-28T22:27:26.593Z,29.80
2019-02-28T22:29:57.838Z,30.10
2019-02-28T22:32:52.169Z,31.93
2019-02-28T22:35:28.769Z,31.47
2019-02-28T22:37:58.030Z,27.07
2019-02-28T22:40:27.122Z,29.07
2019-02-28T22:42:56.216Z,26.87
2019-02-28T22:45:25.517Z,29.50
2019-02-28T22:47:54.878Z,38.57
2019-02-28T22:50:24.226Z,31.63
2019-02-28T22:52:53.861Z,31.07
2019-02-28T22:55:22.950Z,39.10
2019-02-28T22:57:53.803Z,23.77
2019-02-28T23:00:46.366Z,23.40
2019-02-28T23:03:15.414Z,24.87
2019-02-28T23:05:45.026Z,23.53
2019-02-28T23:08:13.956Z,28.13
2019-02-28T23:10:42.917Z,27.30
2019-02-28T23:13:12.165Z,27.13
2019-02-28T23:15:41.297Z,25.63
2019-02-28T23:18:10.478Z,22.90
2019-02-28T23:20:39.462Z,23.03
2019-02-28T23:23:08.698Z,18.60
2019-02-28T23:25:37.730Z,24.93
2019-02-28T23:28:10.809Z,21.90
2019-02-28T23:30:48.604Z,22.63
2019-02-28T23:33:18.431Z,33.47
2019-02-28T23:35:47.917Z,23.20
2019-02-28T23:38:17.010Z,20.20
2019-02-28T23:40:46.281Z,21.67
2019-02-28T23:43:15.357Z,23.50
2019-02-28T23:45:45.561Z,25.53
2019-02-28T23:48:14.563Z,22.47
2019-02-28T23:50:43.569Z,25.43
2019-02-28T23:53:12.537Z,21.87
2019-02-28T23:55:42.361Z,25.13
2019-02-28T23:58:14.981Z,23.53
